createdAt,value
2024-01-07T00:00:58.021Z,19.2
2024-01-07T00:02:02.898Z,18.6
2024-01-07T00:03:07.636Z,18.8
2024-01-07T00:04:12.356Z,21.1
2024-01-07T00:05:17.222Z,19.3
2024-01-07T00:06:22.111Z,20.9
2024-01-07T00:07:26.941Z,20.5
2024-01-07T00:08:31.745Z,20
2024-01-07T00:09:36.499Z,20.7
2024-01-07T00:10:41.417Z,19.2
2024-01-07T00:11:46.163Z,19.1
2024-01-07T00:12:50.920Z,19.1
2024-01-07T00:13:55.744Z,18.6
2024-01-07T00:15:00.498Z,21.4
2024-01-07T00:16:05.262Z,19.9
2024-01-07T00:17:10.118Z,18.6
2024-01-07T00:18:15.016Z,19.2
2024-01-07T00:19:19.818Z,18.6
2024-01-07T00:20:24.831Z,21.3
2024-01-07T00:21:29.692Z,19.7
2024-01-07T00:22:34.528Z,19.1
2024-01-07T00:23:39.490Z,19.1
2024-01-07T00:24:44.322Z,19.5
2024-01-07T00:25:49.046Z,19.7
2024-01-07T00:26:54.044Z,18.2
2024-01-07T00:27:58.895Z,18
2024-01-07T00:29:03.624Z,16.7
2024-01-07T00:30:08.549Z,17.3
2024-01-07T00:31:13.625Z,17.3
2024-01-07T00:32:18.268Z,16.2
2024-01-07T00:33:23.297Z,16.3
2024-01-07T00:34:27.955Z,16
2024-01-07T00:35:32.635Z,15.8
2024-01-07T00:36:37.572Z,16.3
2024-01-07T00:37:42.256Z,16.8
2024-01-07T00:38:47.073Z,18.9
2024-01-07T00:39:51.867Z,16.4
2024-01-07T00:40:56.657Z,14.5
2024-01-07T00:42:01.520Z,15.7
2024-01-07T00:43:06.339Z,16.2
2024-01-07T00:44:11.157Z,14.6
2024-01-07T00:45:15.947Z,15.7
2024-01-07T00:46:20.714Z,16
2024-01-07T00:47:25.648Z,15.2
2024-01-07T00:48:30.528Z,14.5
2024-01-07T00:49:35.352Z,15
2024-01-07T00:50:40.179Z,15.4
2024-01-07T00:51:45.053Z,15.4
2024-01-07T00:52:49.820Z,15.4
2024-01-07T00:53:54.642Z,15.4
2024-01-07T00:54:59.741Z,15.4
2024-01-07T00:56:04.538Z,15.4
2024-01-07T00:57:12.583Z,18
2024-01-07T00:58:17.466Z,18
2024-01-07T00:59:22.435Z,18
2024-01-07T01:00:27.303Z,18
2024-01-07T01:01:32.108Z,16.8
2024-01-07T01:02:36.820Z,17.5
2024-01-07T01:03:41.772Z,16.6
2024-01-07T01:04:46.614Z,18.9
2024-01-07T01:05:51.527Z,17.6
2024-01-07T01:06:56.265Z,16.5
2024-01-07T01:08:01.040Z,17.8
2024-01-07T01:09:05.857Z,17.8
2024-01-07T01:10:10.744Z,16.2
2024-01-07T01:11:15.515Z,18.3
2024-01-07T01:12:20.336Z,17.3
2024-01-07T01:13:25.124Z,17.3
2024-01-07T01:14:29.880Z,17.3
2024-01-07T01:15:34.636Z,16
2024-01-07T01:16:39.332Z,17.2
2024-01-07T01:17:44.166Z,15.6
2024-01-07T01:18:48.953Z,15.9
2024-01-07T01:19:54.191Z,16.3
2024-01-07T01:20:59.071Z,17.2
2024-01-07T01:22:04.042Z,17.2
2024-01-07T01:23:08.724Z,17.3
2024-01-07T01:24:13.709Z,16.6
2024-01-07T01:25:18.497Z,15.7
2024-01-07T01:26:23.257Z,16.5
2024-01-07T01:27:28.165Z,16.8
2024-01-07T01:28:32.928Z,16
2024-01-07T01:29:37.761Z,15.3
2024-01-07T01:30:42.744Z,15.9
2024-01-07T01:31:47.521Z,16.5
2024-01-07T01:32:52.300Z,17
2024-01-07T01:33:57.180Z,14.5
2024-01-07T01:35:04.724Z,17.4
2024-01-07T01:36:09.993Z,16
2024-01-07T01:37:14.954Z,16
2024-01-07T01:38:19.768Z,16
2024-01-07T01:39:24.695Z,16
2024-01-07T01:40:29.558Z,16
2024-01-07T01:41:34.364Z,15.5
2024-01-07T01:42:39.227Z,15.6
2024-01-07T01:43:44.082Z,15.9
2024-01-07T01:44:48.859Z,16.9
2024-01-07T01:45:53.642Z,14.9
2024-01-07T01:46:58.409Z,15.7
2024-01-07T01:48:03.526Z,13.6
2024-01-07T01:49:09.062Z,14.4
2024-01-07T01:50:13.821Z,14.3
2024-01-07T01:51:18.638Z,15.2
2024-01-07T01:52:23.657Z,14.5
2024-01-07T01:53:28.335Z,14.5
2024-01-07T01:54:38.858Z,14.9
2024-01-07T01:55:46.230Z,14.2
2024-01-07T01:56:50.975Z,14.4
2024-01-07T01:57:55.788Z,15.3
2024-01-07T01:59:00.448Z,14.5
2024-01-07T02:00:05.170Z,15.3
2024-01-07T02:01:10.274Z,13.8
2024-01-07T02:02:14.930Z,13.9
2024-01-07T02:03:19.726Z,16.2
2024-01-07T02:04:24.510Z,14.8
2024-01-07T02:05:29.247Z,14.1
2024-01-07T02:06:34.177Z,13.5
2024-01-07T02:07:38.940Z,14.4
2024-01-07T02:08:43.700Z,12.8
2024-01-07T02:09:48.539Z,13.9
2024-01-07T02:10:53.444Z,14.2
2024-01-07T02:11:58.192Z,11.2
2024-01-07T02:13:08.890Z,12.6
2024-01-07T02:14:13.869Z,12.8
2024-01-07T02:15:21.002Z,12.5
2024-01-07T02:16:25.797Z,11.9
2024-01-07T02:17:30.639Z,11.7
2024-01-07T02:18:35.475Z,12.9
2024-01-07T02:19:40.336Z,12.8
2024-01-07T02:20:45.198Z,13
2024-01-07T02:21:49.998Z,12.7
2024-01-07T02:22:54.809Z,13.9
2024-01-07T02:23:59.793Z,13.9
2024-01-07T02:25:04.772Z,13.1
2024-01-07T02:26:09.542Z,12.9
2024-01-07T02:27:14.505Z,13.4
2024-01-07T02:28:19.288Z,13.4
2024-01-07T02:29:24.081Z,14.9
2024-01-07T02:30:29.002Z,12.6
2024-01-07T02:31:33.908Z,13.1
2024-01-07T02:32:38.754Z,12.4
2024-01-07T02:33:43.630Z,13.3
2024-01-07T02:34:48.508Z,12.2
2024-01-07T02:35:53.275Z,12.5
2024-01-07T02:36:58.080Z,12
2024-01-07T02:38:05.750Z,13.2
2024-01-07T02:39:10.701Z,13.2
2024-01-07T02:40:18.235Z,12.8
2024-01-07T02:41:22.995Z,12.9
2024-01-07T02:42:30.549Z,12.1
2024-01-07T02:43:35.469Z,11.3
2024-01-07T02:44:40.311Z,11.6
2024-01-07T02:45:45.087Z,12.9
2024-01-07T02:46:50.010Z,12.8
2024-01-07T02:47:54.859Z,12.3
2024-01-07T02:48:59.688Z,9.7
2024-01-07T02:50:07.203Z,9.7
2024-01-07T02:51:12.149Z,11
2024-01-07T02:52:16.937Z,10.8
2024-01-07T02:53:21.800Z,9.5
2024-01-07T02:54:26.586Z,9.5
2024-01-07T02:55:31.403Z,8.9
2024-01-07T02:56:36.282Z,8.9
2024-01-07T02:57:41.103Z,8.8
2024-01-07T02:58:45.847Z,7.7
2024-01-07T02:59:50.714Z,9.4
2024-01-07T03:00:55.648Z,10.1
2024-01-07T03:02:00.461Z,9.7
2024-01-07T03:03:05.244Z,8.9
2024-01-07T03:04:10.256Z,9.9
2024-01-07T03:05:15.142Z,10.1
2024-01-07T03:06:20.009Z,9.5
2024-01-07T03:07:24.843Z,10
2024-01-07T03:08:29.699Z,11.3
2024-01-07T03:09:37.515Z,9.7
2024-01-07T03:10:42.333Z,10.4
2024-01-07T03:11:47.154Z,10.8
2024-01-07T03:12:51.966Z,10.8
2024-01-07T03:13:56.865Z,10.3
2024-01-07T03:15:04.386Z,10.2
2024-01-07T03:16:09.609Z,9.3
2024-01-07T03:17:14.438Z,10
2024-01-07T03:18:19.365Z,9.5
2024-01-07T03:19:24.190Z,9.6
2024-01-07T03:20:32.500Z,9.5
2024-01-07T03:21:38.537Z,9.9
2024-01-07T03:22:43.354Z,9.2
2024-01-07T03:23:48.413Z,10.8
2024-01-07T03:24:53.284Z,10.5
2024-01-07T03:25:58.077Z,10.5
2024-01-07T03:27:03.004Z,10.4
2024-01-07T03:28:08.021Z,10.4
2024-01-07T03:29:15.821Z,9.2
2024-01-07T03:30:20.687Z,10
2024-01-07T03:31:25.624Z,10.7
2024-01-07T03:32:30.356Z,10.7
2024-01-07T03:33:35.191Z,9.1
2024-01-07T03:34:42.750Z,9.2
2024-01-07T03:35:47.696Z,11
2024-01-07T03:36:52.515Z,11
2024-01-07T03:38:00.202Z,10.8
2024-01-07T03:39:10.805Z,10.1
2024-01-07T03:40:15.639Z,10
2024-01-07T03:41:20.395Z,9.5
2024-01-07T03:42:25.299Z,10.1
2024-01-07T03:43:30.102Z,9.5
2024-01-07T03:44:34.906Z,9.9
2024-01-07T03:45:39.833Z,9.5
2024-01-07T03:46:44.598Z,9.5
2024-01-07T03:47:49.464Z,9.2
2024-01-07T03:48:54.300Z,9.5
2024-01-07T03:49:58.950Z,10
2024-01-07T03:51:03.950Z,10.4
2024-01-07T03:52:08.830Z,9.5
2024-01-07T03:53:13.467Z,9.2
2024-01-07T03:54:18.313Z,9.4
2024-01-07T03:55:23.061Z,9.3
2024-01-07T03:56:27.813Z,8.5
2024-01-07T03:57:32.527Z,9.6
2024-01-07T03:58:37.453Z,8.3
2024-01-07T03:59:42.285Z,8.1
2024-01-07T04:00:49.795Z,9.2
2024-01-07T04:01:56.611Z,9
2024-01-07T04:03:01.487Z,7.8
2024-01-07T04:04:06.443Z,9.6
2024-01-07T04:05:12.303Z,7.5
2024-01-07T04:06:17.113Z,8.2
2024-01-07T04:07:21.900Z,8.8
2024-01-07T04:08:26.644Z,7.5
2024-01-07T04:09:31.553Z,8.2
2024-01-07T04:10:36.530Z,8.1
2024-01-07T04:11:41.260Z,8.9
2024-01-07T04:12:46.039Z,7.7
2024-01-07T04:13:53.507Z,7.9
2024-01-07T04:14:58.346Z,9.3
2024-01-07T04:16:03.427Z,7.7
2024-01-07T04:17:08.265Z,8.5
2024-01-07T04:18:13.092Z,7.9
2024-01-07T04:19:17.899Z,8.5
2024-01-07T04:20:22.647Z,9.9
2024-01-07T04:21:27.631Z,8.9
2024-01-07T04:22:32.500Z,9
2024-01-07T04:23:37.264Z,9.3
2024-01-07T04:24:42.108Z,10
2024-01-07T04:25:46.904Z,9.1
2024-01-07T04:26:51.665Z,9.6
2024-01-07T04:27:56.445Z,8.4
2024-01-07T04:29:01.248Z,9.5
2024-01-07T04:30:06.077Z,8.6
2024-01-07T04:31:10.967Z,8.9
2024-01-07T04:32:15.716Z,10.4
2024-01-07T04:33:20.647Z,10.2
2024-01-07T04:34:25.764Z,9.1
2024-01-07T04:35:31.616Z,8.8
2024-01-07T04:36:36.458Z,9
2024-01-07T04:37:41.217Z,10
2024-01-07T04:38:46.006Z,9.3
2024-01-07T04:39:51.118Z,10
2024-01-07T04:40:55.880Z,10.4
2024-01-07T04:42:00.712Z,11.5
2024-01-07T04:43:05.614Z,10.6
2024-01-07T04:44:10.494Z,12.6
2024-01-07T04:45:15.333Z,10.6
2024-01-07T04:46:20.173Z,9
2024-01-07T04:47:24.997Z,10.3
2024-01-07T04:48:34.956Z,12.5
2024-01-07T04:49:39.606Z,9.4
2024-01-07T04:50:44.533Z,9.9
2024-01-07T04:51:49.344Z,8.3
2024-01-07T04:52:54.145Z,8.2
2024-01-07T04:53:58.920Z,9.8
2024-01-07T04:55:03.900Z,9.5
2024-01-07T04:56:08.782Z,8.7
2024-01-07T04:57:14.698Z,9.4
2024-01-07T04:58:19.581Z,8.8
2024-01-07T04:59:24.320Z,8.8
2024-01-07T05:00:29.297Z,9.4
2024-01-07T05:01:34.181Z,8.8
2024-01-07T05:02:38.812Z,7.6
2024-01-07T05:03:43.614Z,8.6
2024-01-07T05:04:48.625Z,9
2024-01-07T05:05:53.377Z,8.4
2024-01-07T05:06:58.203Z,8.7
2024-01-07T05:08:02.949Z,8.7
2024-01-07T05:09:07.868Z,9.1
2024-01-07T05:10:12.822Z,9.7
2024-01-07T05:11:20.112Z,9.7
2024-01-07T05:12:24.966Z,9.7
2024-01-07T05:13:29.812Z,8.7
2024-01-07T05:14:34.755Z,9
2024-01-07T05:15:39.530Z,9
2024-01-07T05:16:44.297Z,9.4
2024-01-07T05:17:49.386Z,9.1
2024-01-07T05:18:54.246Z,9.6
2024-01-07T05:19:59.010Z,9.5
2024-01-07T05:21:03.909Z,8.1
2024-01-07T05:22:08.903Z,9.2
2024-01-07T05:23:13.715Z,9.1
2024-01-07T05:24:18.632Z,8.8
2024-01-07T05:25:23.562Z,9.5
2024-01-07T05:26:28.363Z,8.9
2024-01-07T05:27:33.246Z,9.3
2024-01-07T05:28:37.975Z,9.6
2024-01-07T05:29:42.754Z,9.7
2024-01-07T05:30:50.457Z,10.2
2024-01-07T05:31:55.091Z,11.2
2024-01-07T05:33:00.091Z,9.3
2024-01-07T05:34:05.057Z,10.2
2024-01-07T05:35:09.713Z,9.5
2024-01-07T05:36:14.470Z,9.5
2024-01-07T05:37:19.339Z,11.6
2024-01-07T05:38:24.058Z,9.9
2024-01-07T05:39:28.926Z,10.9
2024-01-07T05:40:33.616Z,11.7
2024-01-07T05:41:38.456Z,10.8
2024-01-07T05:42:43.347Z,12.6
2024-01-07T05:43:48.137Z,10.2
2024-01-07T05:44:52.933Z,9.4
2024-01-07T05:45:57.904Z,10.6
2024-01-07T05:47:02.650Z,9.5
2024-01-07T05:48:07.532Z,8.5
2024-01-07T05:49:12.415Z,10.5
2024-01-07T05:50:17.181Z,8.9
2024-01-07T05:51:23.969Z,9.5
2024-01-07T05:52:28.830Z,11
2024-01-07T05:53:33.730Z,8.6
2024-01-07T05:54:41.449Z,9.3
2024-01-07T05:55:46.285Z,9.6
2024-01-07T05:56:51.136Z,9.1
2024-01-07T05:57:55.950Z,11.5
2024-01-07T05:59:03.539Z,10.5
2024-01-07T06:00:08.337Z,10.7
2024-01-07T06:01:13.359Z,10
2024-01-07T06:02:23.173Z,9.7
2024-01-07T06:03:28.034Z,9
2024-01-07T06:04:32.924Z,9.5
2024-01-07T06:05:37.525Z,9.4
2024-01-07T06:06:42.439Z,9.8
2024-01-07T06:07:47.164Z,10.7
2024-01-07T06:08:51.858Z,9.4
2024-01-07T06:09:56.759Z,9.9
2024-01-07T06:11:01.612Z,10.6
2024-01-07T06:12:06.399Z,9
2024-01-07T06:13:11.260Z,11.1
2024-01-07T06:14:16.112Z,9.7
2024-01-07T06:15:20.883Z,8.8
2024-01-07T06:16:25.643Z,8.2
2024-01-07T06:17:31.509Z,11.4
2024-01-07T06:18:38.594Z,8.2
2024-01-07T06:19:41.169Z,8.9
2024-01-07T06:20:45.918Z,8.2
2024-01-07T06:21:53.292Z,7.6
2024-01-07T06:22:58.261Z,7.8
2024-01-07T06:24:03.035Z,7.3
2024-01-07T06:25:08.037Z,9.3
2024-01-07T06:26:12.841Z,7.1
2024-01-07T06:27:20.239Z,7.9
2024-01-07T06:28:25.080Z,8.4
2024-01-07T06:29:29.907Z,8.7
2024-01-07T06:30:34.736Z,9.2
2024-01-07T06:31:39.645Z,8.1
2024-01-07T06:32:50.174Z,8.1
2024-01-07T06:33:54.850Z,9.4
2024-01-07T06:34:59.557Z,9.4
2024-01-07T06:36:04.613Z,9.2
2024-01-07T06:37:09.608Z,10.1
2024-01-07T06:38:14.335Z,11.2
2024-01-07T06:39:19.225Z,9.2
2024-01-07T06:40:24.138Z,9.8
2024-01-07T06:41:28.978Z,11.1
2024-01-07T06:42:33.754Z,9.4
2024-01-07T06:43:38.664Z,8.7
2024-01-07T06:44:43.458Z,9.2
2024-01-07T06:45:46.446Z,9.2
2024-01-07T06:46:51.495Z,9.4
2024-01-07T06:47:56.605Z,9
2024-01-07T06:49:01.415Z,12.3
2024-01-07T06:50:06.285Z,13.3
2024-01-07T06:51:11.367Z,11.9
2024-01-07T06:52:16.167Z,10.5
2024-01-07T06:53:21.107Z,10.2
2024-01-07T06:54:26.119Z,10.2
2024-01-07T06:55:30.973Z,10.6
2024-01-07T06:56:35.796Z,9.7
2024-01-07T06:57:40.896Z,9.9
2024-01-07T06:58:45.679Z,9.9
2024-01-07T06:59:50.468Z,9.7
2024-01-07T07:00:55.353Z,9.4
2024-01-07T07:02:00.272Z,10
2024-01-07T07:03:04.956Z,9.5
2024-01-07T07:04:09.925Z,11.7
2024-01-07T07:05:14.751Z,10.7
2024-01-07T07:06:19.512Z,11.8
2024-01-07T07:07:24.235Z,10.9
2024-01-07T07:08:29.108Z,12.7
2024-01-07T07:09:33.988Z,15
2024-01-07T07:10:38.762Z,13.5
2024-01-07T07:11:43.587Z,12
2024-01-07T07:12:48.409Z,11.9
2024-01-07T07:13:53.185Z,11.5
2024-01-07T07:14:59.208Z,9.7
2024-01-07T07:16:03.944Z,9.3
2024-01-07T07:17:09.201Z,9.8
2024-01-07T07:18:14.029Z,10.2
2024-01-07T07:19:18.929Z,10.3
2024-01-07T07:20:23.519Z,9.2
2024-01-07T07:21:28.295Z,8.6
2024-01-07T07:22:33.021Z,10
2024-01-07T07:23:37.877Z,9.4
2024-01-07T07:24:44.081Z,10.7
2024-01-07T07:25:48.869Z,9
2024-01-07T07:26:53.686Z,8.5
2024-01-07T07:27:58.551Z,12.4
2024-01-07T07:29:03.264Z,9.2
2024-01-07T07:30:08.155Z,9.9
2024-01-07T07:31:14.052Z,9.4
2024-01-07T07:32:18.643Z,8.9
2024-01-07T07:33:23.684Z,10.2
2024-01-07T07:34:28.259Z,11.2
2024-01-07T07:35:33.025Z,9.5
2024-01-07T07:36:37.923Z,9.4
2024-01-07T07:37:42.696Z,11.2
2024-01-07T07:38:47.488Z,10.9
2024-01-07T07:39:52.287Z,12.8
2024-01-07T07:40:57.152Z,11.3
2024-01-07T07:42:02.105Z,10.9
2024-01-07T07:43:09.820Z,11.9
2024-01-07T07:44:14.585Z,10.2
2024-01-07T07:45:19.421Z,11.2
2024-01-07T07:46:24.389Z,14
2024-01-07T07:47:29.422Z,13.5
2024-01-07T07:48:34.251Z,13.8
2024-01-07T07:49:39.221Z,12.6
2024-01-07T07:50:44.027Z,13.6
2024-01-07T07:51:48.794Z,12.5
2024-01-07T07:52:53.524Z,12.2
2024-01-07T07:53:58.451Z,11.7
2024-01-07T07:55:05.892Z,11.8
2024-01-07T07:56:10.943Z,12.3
2024-01-07T07:57:15.733Z,12.2
2024-01-07T07:58:20.520Z,18.5
2024-01-07T07:59:25.296Z,13.7
2024-01-07T08:00:30.241Z,13
2024-01-07T08:01:35.146Z,12.8
2024-01-07T08:02:39.766Z,12.8
2024-01-07T08:03:44.777Z,12.8
2024-01-07T08:04:49.625Z,12.3
2024-01-07T08:05:54.534Z,12.5
2024-01-07T08:06:59.356Z,12.5
2024-01-07T08:08:04.330Z,12.5
2024-01-07T08:09:09.319Z,14
2024-01-07T08:10:14.208Z,13.7
2024-01-07T08:11:19.226Z,15.6
2024-01-07T08:12:24.064Z,13.2
2024-01-07T08:13:28.822Z,12.4
2024-01-07T08:14:33.701Z,12.3
2024-01-07T08:15:38.529Z,13.1
2024-01-07T08:16:43.290Z,12.7
2024-01-07T08:17:48.227Z,13.8
2024-01-07T08:18:53.222Z,13
2024-01-07T08:19:57.930Z,14.1
2024-01-07T08:21:02.832Z,14.3
2024-01-07T08:22:07.724Z,13.7
2024-01-07T08:23:12.558Z,14
2024-01-07T08:24:17.555Z,14.5
2024-01-07T08:25:22.618Z,15.6
2024-01-07T08:26:27.555Z,14.2
2024-01-07T08:27:32.497Z,11.4
2024-01-07T08:28:37.310Z,11.8
2024-01-07T08:29:42.171Z,11.7
2024-01-07T08:30:47.266Z,10.8
2024-01-07T08:31:52.105Z,11.3
2024-01-07T08:32:56.906Z,10.7
2024-01-07T08:34:02.076Z,13.2
2024-01-07T08:35:09.327Z,11.5
2024-01-07T08:36:14.168Z,13.3
2024-01-07T08:37:18.996Z,11
2024-01-07T08:38:23.820Z,11.9
2024-01-07T08:39:28.706Z,12.2
2024-01-07T08:40:33.626Z,12.2
2024-01-07T08:41:38.546Z,10.3
2024-01-07T08:42:43.389Z,11.4
2024-01-07T08:43:48.347Z,12.2
2024-01-07T08:44:53.130Z,12.2
2024-01-07T08:45:59.077Z,11.3
2024-01-07T08:47:04.920Z,11.3
2024-01-07T08:48:09.730Z,12
2024-01-07T08:49:14.635Z,12
2024-01-07T08:50:19.473Z,12.3
2024-01-07T08:51:24.322Z,11.8
2024-01-07T08:52:29.076Z,13.6
2024-01-07T08:53:33.948Z,13.2
2024-01-07T08:54:38.902Z,12.3
2024-01-07T08:55:43.720Z,13.5
2024-01-07T08:56:48.826Z,13.5
2024-01-07T08:57:53.748Z,13.5
2024-01-07T08:58:58.689Z,14.1
2024-01-07T09:00:03.860Z,14.1
2024-01-07T09:01:09.024Z,12.9
2024-01-07T09:02:14.848Z,11.6
2024-01-07T09:03:19.883Z,12
2024-01-07T09:04:24.676Z,11.3
2024-01-07T09:05:29.564Z,11.8
2024-01-07T09:06:34.612Z,12.1
2024-01-07T09:07:39.417Z,12.4
2024-01-07T09:08:44.287Z,13
2024-01-07T09:09:49.133Z,14
2024-01-07T09:10:53.853Z,12.1
2024-01-07T09:11:58.628Z,12.4
2024-01-07T09:13:03.700Z,13.4
2024-01-07T09:14:08.504Z,13.6
2024-01-07T09:15:13.232Z,11.8
2024-01-07T09:16:18.091Z,13.9
2024-01-07T09:17:22.865Z,14.8
2024-01-07T09:18:30.588Z,13.3
2024-01-07T09:19:35.294Z,13.4
2024-01-07T09:20:40.075Z,14.2
2024-01-07T09:21:45.952Z,13.3
2024-01-07T09:22:50.703Z,14.8
2024-01-07T09:23:55.584Z,13.1
2024-01-07T09:25:00.424Z,13.1
2024-01-07T09:26:05.155Z,12
2024-01-07T09:27:09.939Z,12.2
2024-01-07T09:28:14.781Z,11.7
2024-01-07T09:29:19.356Z,12.5
2024-01-07T09:30:24.108Z,13.9
2024-01-07T09:31:29.045Z,13.3
2024-01-07T09:32:36.314Z,12.3
2024-01-07T09:33:38.519Z,14
2024-01-07T09:34:43.342Z,15.6
2024-01-07T09:35:48.049Z,14.2
2024-01-07T09:36:55.633Z,12.5
2024-01-07T09:38:00.372Z,13.2
2024-01-07T09:39:05.054Z,12.8
2024-01-07T09:40:09.823Z,11.9
2024-01-07T09:41:14.873Z,11.8
2024-01-07T09:42:19.628Z,12.3
2024-01-07T09:43:26.095Z,12.1
2024-01-07T09:44:29.190Z,12.2
2024-01-07T09:45:34.194Z,12
2024-01-07T09:46:43.995Z,13.2
2024-01-07T09:47:48.788Z,13.7
2024-01-07T09:48:53.785Z,13.8
2024-01-07T09:49:58.556Z,13.5
2024-01-07T09:51:03.421Z,13.7
2024-01-07T09:52:08.372Z,13.8
2024-01-07T09:53:13.121Z,13.8
2024-01-07T09:54:17.897Z,13.1
2024-01-07T09:55:22.860Z,13.1
2024-01-07T09:56:30.564Z,13.1
2024-01-07T09:57:38.130Z,12.3
2024-01-07T09:58:42.846Z,11.8
2024-01-07T09:59:47.683Z,13.6
2024-01-07T10:00:52.611Z,13.2
2024-01-07T10:01:57.593Z,11.3
2024-01-07T10:03:02.258Z,13.3
2024-01-07T10:04:07.594Z,11.3
2024-01-07T10:05:12.465Z,13.6
2024-01-07T10:06:17.231Z,11.7
2024-01-07T10:07:22.065Z,12.1
2024-01-07T10:08:29.097Z,12.8
2024-01-07T10:09:31.590Z,11.9
2024-01-07T10:10:39.082Z,14.1
2024-01-07T10:11:44.073Z,13.5
2024-01-07T10:12:48.836Z,14.3
2024-01-07T10:13:53.691Z,13.2
2024-01-07T10:14:58.528Z,13.8
2024-01-07T10:16:03.324Z,14
2024-01-07T10:17:08.275Z,15.3
2024-01-07T10:18:18.055Z,13.7
2024-01-07T10:19:22.887Z,13.7
2024-01-07T10:20:27.813Z,12.3
2024-01-07T10:21:32.533Z,13.1
2024-01-07T10:22:37.324Z,13.1
2024-01-07T10:23:44.936Z,14.1
2024-01-07T10:24:49.949Z,15.8
2024-01-07T10:25:54.828Z,14.6
2024-01-07T10:26:59.732Z,16.1
2024-01-07T10:28:04.534Z,18.3
2024-01-07T10:29:09.348Z,14.9
2024-01-07T10:30:14.156Z,15.6
2024-01-07T10:31:19.029Z,14
2024-01-07T10:32:23.705Z,14.8
2024-01-07T10:33:28.498Z,15.6
2024-01-07T10:34:36.102Z,16.6
2024-01-07T10:35:40.723Z,14.4
2024-01-07T10:36:45.659Z,16.6
2024-01-07T10:37:50.495Z,15.4
2024-01-07T10:38:55.378Z,14.5
2024-01-07T10:40:01.286Z,15.9
2024-01-07T10:41:06.441Z,15.5
2024-01-07T10:42:11.251Z,15.3
2024-01-07T10:43:16.096Z,14.3
2024-01-07T10:44:21.047Z,16.9
2024-01-07T10:45:25.882Z,17
2024-01-07T10:46:30.751Z,16.8
2024-01-07T10:47:35.619Z,17.2
2024-01-07T10:48:40.594Z,16.5
2024-01-07T10:49:50.646Z,14.9
2024-01-07T10:50:55.424Z,17.2
2024-01-07T10:52:00.271Z,17.4
2024-01-07T10:53:11.249Z,15.1
2024-01-07T10:54:18.935Z,18.2
2024-01-07T10:55:24.042Z,15.9
2024-01-07T10:56:28.778Z,15.2
2024-01-07T10:57:33.583Z,17.5
2024-01-07T10:58:38.546Z,18.5
2024-01-07T10:59:43.430Z,18.9
2024-01-07T11:00:48.320Z,17.8
2024-01-07T11:01:53.263Z,16.4
2024-01-07T11:02:58.045Z,16.9
2024-01-07T11:04:10.806Z,18.3
2024-01-07T11:05:25.487Z,16.6
2024-01-07T11:06:33.140Z,15.7
2024-01-07T11:07:43.679Z,19
2024-01-07T11:08:48.534Z,19.4
2024-01-07T11:09:58.343Z,17.6
2024-01-07T11:11:06.133Z,17.1
2024-01-07T11:12:18.469Z,19.7
2024-01-07T11:13:23.186Z,17.5
2024-01-07T11:14:35.457Z,17.1
2024-01-07T11:15:45.229Z,18.2
2024-01-07T11:16:52.905Z,16.7
2024-01-07T11:17:57.794Z,16.5
2024-01-07T11:19:02.796Z,17.6
2024-01-07T11:20:07.577Z,16
2024-01-07T11:21:17.288Z,18.8
2024-01-07T11:22:25.159Z,18.9
2024-01-07T11:23:32.955Z,18.5
2024-01-07T11:24:37.741Z,16.8
2024-01-07T11:25:42.669Z,19.2
2024-01-07T11:26:47.548Z,19.2
2024-01-07T11:27:52.473Z,19.2
2024-01-07T11:28:57.336Z,19.2
2024-01-07T11:30:02.146Z,19
2024-01-07T11:31:10.028Z,20.5
2024-01-07T11:32:14.723Z,19.2
2024-01-07T11:33:19.645Z,18.6
2024-01-07T11:34:24.365Z,18.5
2024-01-07T11:35:38.888Z,19.4
2024-01-07T11:36:53.563Z,19
2024-01-07T11:37:58.218Z,14.5
2024-01-07T11:39:03.039Z,16.9
2024-01-07T11:40:07.834Z,16.9
2024-01-07T11:41:12.642Z,17.7
2024-01-07T11:42:17.588Z,16.4
2024-01-07T11:43:24.953Z,19.3
2024-01-07T11:44:29.773Z,19.5
2024-01-07T11:45:34.564Z,19.3
2024-01-07T11:46:39.315Z,18.8
2024-01-07T11:47:44.092Z,15.1
2024-01-07T11:48:49.006Z,15.1
2024-01-07T11:49:56.796Z,14.8
2024-01-07T11:51:01.495Z,14.2
2024-01-07T11:52:06.345Z,15.2
2024-01-07T11:53:11.235Z,16.8
2024-01-07T11:54:16.096Z,17.1
2024-01-07T11:55:20.918Z,18.8
2024-01-07T11:56:25.751Z,19.9
2024-01-07T11:57:31.890Z,18.1
2024-01-07T11:58:36.699Z,18.7
2024-01-07T11:59:43.308Z,18.2
2024-01-07T12:00:46.433Z,20.7
2024-01-07T12:01:51.329Z,24.3
2024-01-07T12:02:56.054Z,22.7
2024-01-07T12:04:01.031Z,21.1
2024-01-07T12:05:05.777Z,22.4
2024-01-07T12:06:10.846Z,23.2
2024-01-07T12:07:18.729Z,22
2024-01-07T12:08:23.464Z,22.4
2024-01-07T12:09:28.343Z,21.1
2024-01-07T12:10:32.995Z,20.5
2024-01-07T12:11:38.552Z,18.9
2024-01-07T12:12:42.837Z,19.8
2024-01-07T12:13:47.606Z,19.6
2024-01-07T12:14:52.408Z,17.3
2024-01-07T12:15:58.269Z,17.4
2024-01-07T12:17:03.246Z,16.9
2024-01-07T12:18:08.118Z,19.9
2024-01-07T12:19:12.911Z,18.8
2024-01-07T12:20:17.768Z,17.5
2024-01-07T12:21:22.616Z,16.5
2024-01-07T12:22:27.553Z,17.8
2024-01-07T12:23:32.362Z,17
2024-01-07T12:24:39.982Z,18.1
2024-01-07T12:25:44.711Z,17.3
2024-01-07T12:26:49.596Z,16
2024-01-07T12:27:54.466Z,16.6
2024-01-07T12:28:59.152Z,16.8
2024-01-07T12:30:03.960Z,18
2024-01-07T12:31:09.416Z,18.8
2024-01-07T12:32:13.999Z,18.2
2024-01-07T12:33:20.891Z,15.9
2024-01-07T12:34:23.923Z,16.4
2024-01-07T12:35:28.763Z,16.2
2024-01-07T12:36:33.600Z,15.8
2024-01-07T12:37:38.518Z,15.8
2024-01-07T12:38:43.375Z,17.1
2024-01-07T12:39:48.261Z,17.1
2024-01-07T12:40:53.061Z,17
2024-01-07T12:41:57.941Z,17.1
2024-01-07T12:43:02.805Z,16.8
2024-01-07T12:44:07.584Z,18.5
2024-01-07T12:45:15.204Z,17.2
2024-01-07T12:46:20.023Z,15.2
2024-01-07T12:47:24.940Z,16.5
2024-01-07T12:48:32.624Z,17
2024-01-07T12:49:37.435Z,18.9
2024-01-07T12:50:42.261Z,16
2024-01-07T12:51:47.149Z,16.7
2024-01-07T12:52:52.048Z,16.2
2024-01-07T12:53:56.812Z,16.6
2024-01-07T12:55:01.808Z,17
2024-01-07T12:56:06.777Z,18.5
2024-01-07T12:57:11.841Z,19.2
2024-01-07T12:58:16.792Z,23.4
2024-01-07T12:59:21.629Z,19.7
2024-01-07T13:00:26.497Z,19.2
2024-01-07T13:01:31.449Z,21
2024-01-07T13:02:36.375Z,21.1
2024-01-07T13:03:41.162Z,18.5
2024-01-07T13:04:46.046Z,19.3
2024-01-07T13:05:51.124Z,20.9
2024-01-07T13:06:56.029Z,20
2024-01-07T13:08:00.871Z,19.9
2024-01-07T13:09:06.242Z,18.9
2024-01-07T13:10:10.736Z,17.5
2024-01-07T13:11:15.615Z,16.4
2024-01-07T13:12:20.896Z,18.7
2024-01-07T13:13:25.567Z,17.6
2024-01-07T13:14:30.489Z,17.4
2024-01-07T13:15:35.486Z,17.7
2024-01-07T13:16:40.323Z,17.4
2024-01-07T13:17:48.230Z,19
2024-01-07T13:18:53.203Z,17.7
2024-01-07T13:19:58.045Z,18.2
2024-01-07T13:21:02.990Z,18.9
2024-01-07T13:22:08.219Z,19.1
2024-01-07T13:23:13.101Z,16.3
2024-01-07T13:24:18.017Z,20.1
2024-01-07T13:25:23.054Z,19.2
2024-01-07T13:26:27.918Z,20.1
2024-01-07T13:27:33.947Z,21.2
2024-01-07T13:28:38.148Z,20.7
2024-01-07T13:29:43.132Z,18.6
2024-01-07T13:30:48.128Z,19.8
2024-01-07T13:31:53.329Z,16
2024-01-07T13:32:58.560Z,17.5
2024-01-07T13:34:02.925Z,17.6
2024-01-07T13:35:07.552Z,23.1
2024-01-07T13:36:12.292Z,18.1
2024-01-07T13:37:17.128Z,18.7
2024-01-07T13:38:24.564Z,17.1
2024-01-07T13:39:29.362Z,19
2024-01-07T13:40:34.214Z,19.4
2024-01-07T13:41:38.959Z,20.3
2024-01-07T13:42:43.738Z,19.6
2024-01-07T13:43:48.443Z,18.3
2024-01-07T13:44:53.202Z,18.2
2024-01-07T13:46:01.039Z,18.9
2024-01-07T13:47:05.761Z,18.4
2024-01-07T13:48:10.645Z,17
2024-01-07T13:49:15.473Z,18.5
2024-01-07T13:50:20.232Z,16.6
2024-01-07T13:51:25.216Z,17.7
2024-01-07T13:52:30.899Z,17
2024-01-07T13:53:35.795Z,18.6
2024-01-07T13:54:40.585Z,18
2024-01-07T13:55:45.339Z,20
2024-01-07T13:56:50.255Z,17.7
2024-01-07T13:57:55.079Z,20
2024-01-07T13:58:59.871Z,20.6
2024-01-07T14:00:04.691Z,19.3
2024-01-07T14:01:10.038Z,19.7
2024-01-07T14:02:14.806Z,18.2
2024-01-07T14:03:19.586Z,21.2
2024-01-07T14:04:24.347Z,17.9
2024-01-07T14:05:29.146Z,18.4
2024-01-07T14:06:33.943Z,18.9
2024-01-07T14:07:38.632Z,19.6
2024-01-07T14:08:43.328Z,16.9
2024-01-07T14:09:48.086Z,21
2024-01-07T14:10:52.862Z,21
2024-01-07T14:11:57.624Z,20.7
2024-01-07T14:13:02.400Z,19
2024-01-07T14:14:10.460Z,18.5
2024-01-07T14:15:15.394Z,19.8
2024-01-07T14:16:20.212Z,19.8
2024-01-07T14:17:24.952Z,20.2
2024-01-07T14:18:29.809Z,20.2
2024-01-07T14:19:34.597Z,20.9
2024-01-07T14:20:39.304Z,19.6
2024-01-07T14:21:44.089Z,20.4
2024-01-07T14:22:48.890Z,19.8
2024-01-07T14:23:53.671Z,19
2024-01-07T14:24:58.524Z,19
2024-01-07T14:26:03.219Z,21
2024-01-07T14:27:08.361Z,20.5
2024-01-07T14:28:13.682Z,18.8
2024-01-07T14:29:18.696Z,19.7
2024-01-07T14:30:23.238Z,19.2
2024-01-07T14:31:28.128Z,18.5
2024-01-07T14:32:32.883Z,19.1
2024-01-07T14:33:37.762Z,18.5
2024-01-07T14:34:42.694Z,19
2024-01-07T14:35:47.053Z,20.1
2024-01-07T14:36:51.893Z,20.5
2024-01-07T14:37:56.598Z,18.8
2024-01-07T14:39:04.093Z,18.3
2024-01-07T14:40:08.885Z,21
2024-01-07T14:41:13.796Z,19.2